sensor_id;sensor_type;location;lat;lon;timestamp;pressure;altitude;pressure_sealevel;temperature;humidity
54270;BME280;40181;51.560;13.000;2023-02-12T00:00:11;102509.44;;;5.26;100.00
54270;BME280;40181;51.560;13.000;2023-02-12T00:02:42;102510.16;;;5.23;100.00
54270;BME280;40181;51.560;13.000;2023-02-12T00:05:11;102512.78;;;5.37;100.00
54270;BME280;40181;51.560;13.000;2023-02-12T00:07:40;102521.09;;;5.31;100.00
54270;BME280;40181;51.560;13.000;2023-02-12T00:10:10;102513.06;;;5.28;100.00
54270;BME280;40181;51.560;13.000;2023-02-12T00:12:40;102522.09;;;5.33;100.00
54270;BME280;40181;51.560;13.000;2023-02-12T00:15:11;102519.50;;;5.33;100.00
54270;BME280;40181;51.560;13.000;2023-02-12T00:17:40;102521.88;;;5.30;100.00
54270;BME280;40181;51.560;13.000;2023-02-12T00:20:10;102517.06;;;5.36;100.00
54270;BME280;40181;51.560;13.000;2023-02-12T00:22:39;102520.59;;;5.37;100.00
54270;BME280;40181;51.560;13.000;2023-02-12T00:25:08;102515.97;;;5.33;100.00
54270;BME280;40181;51.560;13.000;2023-02-12T00:27:38;102512.66;;;5.35;100.00
54270;BME280;40181;51.560;13.000;2023-02-12T00:30:07;102520.41;;;5.47;100.00
54270;BME280;40181;51.560;13.000;2023-02-12T00:32:40;102534.25;;;5.46;100.00
54270;BME280;40181;51.560;13.000;2023-02-12T00:35:09;102533.63;;;5.50;100.00
54270;BME280;40181;51.560;13.000;2023-02-12T00:37:38;102541.44;;;5.50;100.00
54270;BME280;40181;51.560;13.000;2023-02-12T00:40:08;102533.53;;;5.49;100.00
54270;BME280;40181;51.560;13.000;2023-02-12T00:42:37;102533.94;;;5.55;100.00
54270;BME280;40181;51.560;13.000;2023-02-12T00:45:07;102534.94;;;5.57;100.00
54270;BME280;40181;51.560;13.000;2023-02-12T00:47:39;102541.38;;;5.62;100.00
54270;BME280;40181;51.560;13.000;2023-02-12T00:50:09;102556.41;;;5.66;100.00
54270;BME280;40181;51.560;13.000;2023-02-12T00:52:38;102547.56;;;5.64;100.00
54270;BME280;40181;51.560;13.000;2023-02-12T00:55:07;102549.91;;;5.73;100.00
54270;BME280;40181;51.560;13.000;2023-02-12T00:57:36;102558.59;;;5.47;100.00
54270;BME280;40181;51.560;13.000;2023-02-12T01:00:07;102547.88;;;5.56;100.00
54270;BME280;40181;51.560;13.000;2023-02-12T01:02:39;102557.19;;;5.65;100.00
54270;BME280;40181;51.560;13.000;2023-02-12T01:05:09;102560.94;;;5.56;100.00
54270;BME280;40181;51.560;13.000;2023-02-12T01:07:38;102553.19;;;5.57;100.00
54270;BME280;40181;51.560;13.000;2023-02-12T01:10:07;102557.94;;;5.63;100.00
54270;BME280;40181;51.560;13.000;2023-02-12T01:12:37;102558.22;;;5.67;100.00
54270;BME280;40181;51.560;13.000;2023-02-12T01:15:07;102565.03;;;5.65;100.00
54270;BME280;40181;51.560;13.000;2023-02-12T01:17:39;102562.03;;;5.59;100.00
54270;BME280;40181;51.560;13.000;2023-02-12T01:20:11;102573.34;;;5.60;100.00
54270;BME280;40181;51.560;13.000;2023-02-12T01:22:41;102567.44;;;5.62;100.00
54270;BME280;40181;51.560;13.000;2023-02-12T01:25:11;102573.25;;;5.72;100.00
54270;BME280;40181;51.560;13.000;2023-02-12T01:27:40;102572.47;;;5.59;100.00
54270;BME280;40181;51.560;13.000;2023-02-12T01:30:14;102575.75;;;5.57;100.00
54270;BME280;40181;51.560;13.000;2023-02-12T01:32:46;102566.75;;;5.65;100.00
54270;BME280;40181;51.560;13.000;2023-02-12T01:35:15;102576.25;;;5.51;100.00
54270;BME280;40181;51.560;13.000;2023-02-12T01:37:44;102572.78;;;5.64;100.00
54270;BME280;40181;51.560;13.000;2023-02-12T01:40:14;102562.63;;;5.55;100.00
54270;BME280;40181;51.560;13.000;2023-02-12T01:42:45;102563.44;;;5.67;100.00
54270;BME280;40181;51.560;13.000;2023-02-12T01:45:42;102561.22;;;5.74;100.00
54270;BME280;40181;51.560;13.000;2023-02-12T01:48:14;102564.06;;;5.77;100.00
54270;BME280;40181;51.560;13.000;2023-02-12T01:50:45;102562.84;;;5.72;100.00
54270;BME280;40181;51.560;13.000;2023-02-12T01:53:17;102549.50;;;5.67;100.00
54270;BME280;40181;51.560;13.000;2023-02-12T01:55:51;102540.75;;;5.80;100.00
54270;BME280;40181;51.560;13.000;2023-02-12T01:58:23;102548.41;;;5.77;100.00
54270;BME280;40181;51.560;13.000;2023-02-12T02:00:58;102556.22;;;5.77;100.00
54270;BME280;40181;51.560;13.000;2023-02-12T02:03:28;102541.56;;;5.79;100.00
54270;BME280;40181;51.560;13.000;2023-02-12T02:06:00;102543.47;;;5.81;100.00
54270;BME280;40181;51.560;13.000;2023-02-12T02:08:33;102542.78;;;5.71;100.00
54270;BME280;40181;51.560;13.000;2023-02-12T02:11:04;102545.38;;;5.71;100.00
54270;BME280;40181;51.560;13.000;2023-02-12T02:13:53;102546.88;;;5.67;100.00
54270;BME280;40181;51.560;13.000;2023-02-12T02:16:41;102545.19;;;5.67;100.00
54270;BME280;40181;51.560;13.000;2023-02-12T02:19:20;102545.66;;;5.62;100.00
54270;BME280;40181;51.560;13.000;2023-02-12T02:22:17;102549.78;;;5.58;100.00
54270;BME280;40181;51.560;13.000;2023-02-12T02:25:23;102550.19;;;5.51;100.00
54270;BME280;40181;51.560;13.000;2023-02-12T02:28:05;102552.19;;;5.55;100.00
54270;BME280;40181;51.560;13.000;2023-02-12T02:30:51;102552.56;;;5.48;100.00
54270;BME280;40181;51.560;13.000;2023-02-12T02:33:36;102547.47;;;5.49;100.00
54270;BME280;40181;51.560;13.000;2023-02-12T02:36:14;102554.06;;;5.44;100.00
54270;BME280;40181;51.560;13.000;2023-02-12T02:38:53;102547.06;;;5.43;100.00
54270;BME280;40181;51.560;13.000;2023-02-12T02:41:29;102565.59;;;5.48;100.00
54270;BME280;40181;51.560;13.000;2023-02-12T02:44:06;102562.81;;;5.45;100.00
54270;BME280;40181;51.560;13.000;2023-02-12T02:46:45;102554.88;;;5.43;100.00
54270;BME280;40181;51.560;13.000;2023-02-12T02:49:17;102559.19;;;5.56;100.00
54270;BME280;40181;51.560;13.000;2023-02-12T02:51:51;102558.16;;;5.27;100.00
54270;BME280;40181;51.560;13.000;2023-02-12T02:54:28;102561.69;;;5.41;100.00
54270;BME280;40181;51.560;13.000;2023-02-12T02:57:02;102564.03;;;5.50;100.00
54270;BME280;40181;51.560;13.000;2023-02-12T02:59:39;102557.59;;;5.45;100.00
54270;BME280;40181;51.560;13.000;2023-02-12T03:02:19;102563.31;;;5.52;100.00
54270;BME280;40181;51.560;13.000;2023-02-12T03:04:52;102573.25;;;5.45;100.00
54270;BME280;40181;51.560;13.000;2023-02-12T03:07:26;102573.44;;;5.48;100.00
54270;BME280;40181;51.560;13.000;2023-02-12T03:12:43;102581.06;;;5.45;100.00
54270;BME280;40181;51.560;13.000;2023-02-12T03:15:20;102578.88;;;5.51;100.00
54270;BME280;40181;51.560;13.000;2023-02-12T03:17:57;102583.06;;;5.49;100.00
54270;BME280;40181;51.560;13.000;2023-02-12T03:20:31;102590.78;;;5.47;100.00
54270;BME280;40181;51.560;13.000;2023-02-12T03:23:05;102589.06;;;5.48;100.00
54270;BME280;40181;51.560;13.000;2023-02-12T03:25:39;102592.47;;;5.47;100.00
54270;BME280;40181;51.560;13.000;2023-02-12T03:28:15;102589.00;;;5.46;100.00
54270;BME280;40181;51.560;13.000;2023-02-12T03:30:51;102601.91;;;5.45;100.00
54270;BME280;40181;51.560;13.000;2023-02-12T03:33:31;102589.06;;;5.48;100.00
54270;BME280;40181;51.560;13.000;2023-02-12T03:36:18;102598.13;;;5.53;100.00
54270;BME280;40181;51.560;13.000;2023-02-12T03:38:55;102602.22;;;5.49;100.00
54270;BME280;40181;51.560;13.000;2023-02-12T03:41:33;102601.22;;;5.47;100.00
54270;BME280;40181;51.560;13.000;2023-02-12T03:44:13;102602.72;;;5.44;100.00
54270;BME280;40181;51.560;13.000;2023-02-12T03:46:56;102615.13;;;5.48;100.00
54270;BME280;40181;51.560;13.000;2023-02-12T03:49:34;102604.94;;;5.51;100.00
54270;BME280;40181;51.560;13.000;2023-02-12T03:52:07;102612.22;;;5.43;100.00
54270;BME280;40181;51.560;13.000;2023-02-12T03:54:36;102617.03;;;5.37;100.00
54270;BME280;40181;51.560;13.000;2023-02-12T03:57:08;102618.56;;;5.47;100.00
54270;BME280;40181;51.560;13.000;2023-02-12T03:59:39;102631.88;;;5.38;100.00
54270;BME280;40181;51.560;13.000;2023-02-12T04:02:09;102627.06;;;5.44;100.00
54270;BME280;40181;51.560;13.000;2023-02-12T04:04:40;102630.28;;;5.40;100.00
54270;BME280;40181;51.560;13.000;2023-02-12T04:07:11;102629.09;;;5.48;100.00
54270;BME280;40181;51.560;13.000;2023-02-12T04:09:41;102626.50;;;5.48;100.00
54270;BME280;40181;51.560;13.000;2023-02-12T04:12:33;102639.03;;;5.54;100.00
54270;BME280;40181;51.560;13.000;2023-02-12T04:15:20;102636.53;;;5.56;100.00
54270;BME280;40181;51.560;13.000;2023-02-12T04:18:05;102644.84;;;5.50;100.00
54270;BME280;40181;51.560;13.000;2023-02-12T04:20:50;102663.31;;;5.53;100.00
54270;BME280;40181;51.560;13.000;2023-02-12T04:23:34;102657.47;;;5.44;100.00
54270;BME280;40181;51.560;13.000;2023-02-12T04:26:19;102658.66;;;5.49;100.00
54270;BME280;40181;51.560;13.000;2023-02-12T04:28:58;102654.16;;;5.46;100.00
54270;BME280;40181;51.560;13.000;2023-02-12T04:31:39;102666.78;;;5.53;100.00
54270;BME280;40181;51.560;13.000;2023-02-12T04:34:14;102657.09;;;5.51;100.00
54270;BME280;40181;51.560;13.000;2023-02-12T04:36:55;102651.81;;;5.63;100.00
54270;BME280;40181;51.560;13.000;2023-02-12T04:39:30;102669.03;;;5.61;100.00
54270;BME280;40181;51.560;13.000;2023-02-12T04:42:02;102674.84;;;5.57;100.00
54270;BME280;40181;51.560;13.000;2023-02-12T04:44:33;102673.53;;;5.50;100.00
54270;BME280;40181;51.560;13.000;2023-02-12T04:47:07;102657.94;;;5.38;100.00
54270;BME280;40181;51.560;13.000;2023-02-12T04:49:37;102656.53;;;5.43;100.00
54270;BME280;40181;51.560;13.000;2023-02-12T04:52:09;102657.56;;;5.45;100.00
54270;BME280;40181;51.560;13.000;2023-02-12T04:54:38;102666.78;;;5.53;100.00
54270;BME280;40181;51.560;13.000;2023-02-12T04:57:08;102663.00;;;5.62;100.00
54270;BME280;40181;51.560;13.000;2023-02-12T04:59:37;102671.69;;;5.49;100.00
54270;BME280;40181;51.560;13.000;2023-02-12T05:02:06;102661.31;;;5.62;100.00
54270;BME280;40181;51.560;13.000;2023-02-12T05:04:35;102669.19;;;5.50;100.00
54270;BME280;40181;51.560;13.000;2023-02-12T05:07:04;102674.25;;;5.61;100.00
54270;BME280;40181;51.560;13.000;2023-02-12T05:09:35;102673.44;;;5.62;100.00
54270;BME280;40181;51.560;13.000;2023-02-12T05:12:05;102665.34;;;5.32;100.00
54270;BME280;40181;51.560;13.000;2023-02-12T05:14:34;102671.78;;;5.37;100.00
54270;BME280;40181;51.560;13.000;2023-02-12T05:17:04;102657.78;;;5.48;100.00
54270;BME280;40181;51.560;13.000;2023-02-12T05:19:33;102663.56;;;5.44;100.00
54270;BME280;40181;51.560;13.000;2023-02-12T05:22:02;102664.31;;;5.55;100.00
54270;BME280;40181;51.560;13.000;2023-02-12T05:24:31;102668.06;;;5.33;100.00
54270;BME280;40181;51.560;13.000;2023-02-12T05:27:03;102668.00;;;5.45;100.00
54270;BME280;40181;51.560;13.000;2023-02-12T05:29:33;102663.66;;;5.46;100.00
54270;BME280;40181;51.560;13.000;2023-02-12T05:32:02;102665.75;;;5.38;100.00
54270;BME280;40181;51.560;13.000;2023-02-12T05:34:33;102663.25;;;5.39;100.00
54270;BME280;40181;51.560;13.000;2023-02-12T05:37:02;102664.19;;;5.53;100.00
54270;BME280;40181;51.560;13.000;2023-02-12T05:39:31;102668.69;;;5.43;100.00
54270;BME280;40181;51.560;13.000;2023-02-12T05:42:03;102680.41;;;5.36;100.00
54270;BME280;40181;51.560;13.000;2023-02-12T05:44:32;102672.94;;;5.29;100.00
54270;BME280;40181;51.560;13.000;2023-02-12T05:47:01;102682.84;;;5.46;100.00
54270;BME280;40181;51.560;13.000;2023-02-12T05:49:30;102674.19;;;5.22;100.00
54270;BME280;40181;51.560;13.000;2023-02-12T05:51:59;102679.66;;;5.25;100.00
54270;BME280;40181;51.560;13.000;2023-02-12T05:54:28;102675.50;;;5.40;100.00
54270;BME280;40181;51.560;13.000;2023-02-12T05:57:00;102683.53;;;5.44;100.00
54270;BME280;40181;51.560;13.000;2023-02-12T05:59:29;102685.19;;;5.30;100.00
54270;BME280;40181;51.560;13.000;2023-02-12T06:01:58;102705.88;;;5.15;100.00
54270;BME280;40181;51.560;13.000;2023-02-12T06:04:28;102700.50;;;5.25;100.00
54270;BME280;40181;51.560;13.000;2023-02-12T06:06:59;102697.41;;;5.05;100.00
54270;BME280;40181;51.560;13.000;2023-02-12T06:09:28;102699.63;;;5.12;100.00
54270;BME280;40181;51.560;13.000;2023-02-12T06:12:00;102708.19;;;5.23;100.00
54270;BME280;40181;51.560;13.000;2023-02-12T06:14:30;102719.41;;;4.97;100.00
54270;BME280;40181;51.560;13.000;2023-02-12T06:16:59;102709.38;;;5.03;100.00
54270;BME280;40181;51.560;13.000;2023-02-12T06:19:28;102701.91;;;5.08;100.00
54270;BME280;40181;51.560;13.000;2023-02-12T06:21:57;102708.69;;;5.18;100.00
54270;BME280;40181;51.560;13.000;2023-02-12T06:24:26;102708.00;;;5.20;100.00
54270;BME280;40181;51.560;13.000;2023-02-12T06:26:55;102706.16;;;5.31;100.00
54270;BME280;40181;51.560;13.000;2023-02-12T06:29:27;102711.25;;;5.30;100.00
54270;BME280;40181;51.560;13.000;2023-02-12T06:31:56;102722.88;;;4.97;100.00
54270;BME280;40181;51.560;13.000;2023-02-12T06:34:25;102721.72;;;5.18;100.00
54270;BME280;40181;51.560;13.000;2023-02-12T06:36:55;102726.44;;;5.23;100.00
54270;BME280;40181;51.560;13.000;2023-02-12T06:39:24;102728.50;;;5.16;100.00
54270;BME280;40181;51.560;13.000;2023-02-12T06:41:53;102740.88;;;5.18;100.00
54270;BME280;40181;51.560;13.000;2023-02-12T06:44:22;102727.69;;;5.29;100.00
54270;BME280;40181;51.560;13.000;2023-02-12T06:46:54;102725.59;;;5.36;100.00
54270;BME280;40181;51.560;13.000;2023-02-12T06:49:23;102733.31;;;5.35;100.00
54270;BME280;40181;51.560;13.000;2023-02-12T06:51:52;102735.13;;;5.36;100.00
54270;BME280;40181;51.560;13.000;2023-02-12T06:54:21;102742.41;;;5.28;100.00
54270;BME280;40181;51.560;13.000;2023-02-12T06:56:50;102740.25;;;5.34;100.00
54270;BME280;40181;51.560;13.000;2023-02-12T06:59:19;102738.31;;;5.32;100.00
54270;BME280;40181;51.560;13.000;2023-02-12T07:01:48;102749.19;;;5.38;100.00
54270;BME280;40181;51.560;13.000;2023-02-12T07:04:20;102751.53;;;5.09;100.00
54270;BME280;40181;51.560;13.000;2023-02-12T07:06:49;102758.34;;;5.07;100.00
54270;BME280;40181;51.560;13.000;2023-02-12T07:09:18;102758.22;;;5.06;100.00
54270;BME280;40181;51.560;13.000;2023-02-12T07:11:47;102756.88;;;4.99;100.00
54270;BME280;40181;51.560;13.000;2023-02-12T07:14:16;102764.00;;;5.02;100.00
54270;BME280;40181;51.560;13.000;2023-02-12T07:16:46;102758.00;;;5.03;100.00
54270;BME280;40181;51.560;13.000;2023-02-12T07:19:15;102756.88;;;4.99;100.00
54270;BME280;40181;51.560;13.000;2023-02-12T07:21:46;102757.25;;;5.17;100.00
54270;BME280;40181;51.560;13.000;2023-02-12T07:24:16;102764.97;;;5.28;100.00
54270;BME280;40181;51.560;13.000;2023-02-12T07:26:45;102764.75;;;5.12;100.00
54270;BME280;40181;51.560;13.000;2023-02-12T07:29:14;102764.84;;;5.26;100.00
54270;BME280;40181;51.560;13.000;2023-02-12T07:31:43;102779.38;;;5.22;100.00
54270;BME280;40181;51.560;13.000;2023-02-12T07:34:12;102787.84;;;5.32;100.00
54270;BME280;40181;51.560;13.000;2023-02-12T07:36:41;102779.22;;;5.33;100.00
54270;BME280;40181;51.560;13.000;2023-02-12T07:39:13;102789.78;;;5.22;100.00
54270;BME280;40181;51.560;13.000;2023-02-12T07:41:42;102796.91;;;5.37;100.00
54270;BME280;40181;51.560;13.000;2023-02-12T07:44:11;102805.59;;;5.37;100.00
54270;BME280;40181;51.560;13.000;2023-02-12T07:46:42;102795.53;;;5.30;100.00
54270;BME280;40181;51.560;13.000;2023-02-12T07:49:14;102801.41;;;5.39;100.00
54270;BME280;40181;51.560;13.000;2023-02-12T07:51:45;102802.13;;;5.37;100.00
54270;BME280;40181;51.560;13.000;2023-02-12T07:54:16;102799.53;;;5.25;100.00
54270;BME280;40181;51.560;13.000;2023-02-12T07:56:45;102812.41;;;5.35;100.00
54270;BME280;40181;51.560;13.000;2023-02-12T07:59:17;102810.00;;;5.38;100.00
54270;BME280;40181;51.560;13.000;2023-02-12T08:01:48;102814.63;;;5.54;100.00
54270;BME280;40181;51.560;13.000;2023-02-12T08:04:18;102819.22;;;5.33;100.00
54270;BME280;40181;51.560;13.000;2023-02-12T08:06:50;102814.44;;;5.39;100.00
54270;BME280;40181;51.560;13.000;2023-02-12T08:09:25;102815.50;;;5.30;100.00
54270;BME280;40181;51.560;13.000;2023-02-12T08:11:55;102833.28;;;5.35;100.00
54270;BME280;40181;51.560;13.000;2023-02-12T08:14:25;102827.06;;;5.33;100.00
54270;BME280;40181;51.560;13.000;2023-02-12T08:16:55;102824.19;;;5.30;100.00
54270;BME280;40181;51.560;13.000;2023-02-12T08:19:24;102820.09;;;5.46;100.00
54270;BME280;40181;51.560;13.000;2023-02-12T08:21:54;102828.06;;;5.35;100.00
54270;BME280;40181;51.560;13.000;2023-02-12T08:24:26;102826.25;;;5.34;100.00
54270;BME280;40181;51.560;13.000;2023-02-12T08:26:55;102830.13;;;5.16;100.00
54270;BME280;40181;51.560;13.000;2023-02-12T08:29:26;102831.00;;;5.28;100.00
54270;BME280;40181;51.560;13.000;2023-02-12T08:31:57;102841.31;;;5.26;100.00
54270;BME280;40181;51.560;13.000;2023-02-12T08:34:29;102824.13;;;5.29;100.00
54270;BME280;40181;51.560;13.000;2023-02-12T08:37:03;102835.19;;;5.38;100.00
54270;BME280;40181;51.560;13.000;2023-02-12T08:39:35;102830.84;;;5.50;100.00
54270;BME280;40181;51.560;13.000;2023-02-12T08:42:04;102831.19;;;5.43;100.00
54270;BME280;40181;51.560;13.000;2023-02-12T08:44:33;102835.53;;;5.43;100.00
54270;BME280;40181;51.560;13.000;2023-02-12T08:47:03;102841.63;;;5.43;100.00
54270;BME280;40181;51.560;13.000;2023-02-12T08:49:34;102849.22;;;5.52;100.00
54270;BME280;40181;51.560;13.000;2023-02-12T08:52:03;102836.66;;;5.46;100.00
54270;BME280;40181;51.560;13.000;2023-02-12T08:54:35;102841.72;;;5.57;100.00
54270;BME280;40181;51.560;13.000;2023-02-12T08:57:04;102840.19;;;5.72;100.00
54270;BME280;40181;51.560;13.000;2023-02-12T08:59:33;102852.22;;;5.58;100.00
54270;BME280;40181;51.560;13.000;2023-02-12T09:02:02;102849.53;;;5.57;100.00
54270;BME280;40181;51.560;13.000;2023-02-12T09:04:33;102843.72;;;5.61;100.00
54270;BME280;40181;51.560;13.000;2023-02-12T09:07:02;102851.34;;;5.58;100.00
54270;BME280;40181;51.560;13.000;2023-02-12T09:09:31;102850.00;;;5.63;100.00
54270;BME280;40181;51.560;13.000;2023-02-12T09:12:03;102855.97;;;5.62;100.00
54270;BME280;40181;51.560;13.000;2023-02-12T09:14:32;102860.50;;;5.64;100.00
54270;BME280;40181;51.560;13.000;2023-02-12T09:17:01;102859.56;;;5.76;100.00
54270;BME280;40181;51.560;13.000;2023-02-12T09:19:30;102856.75;;;5.73;100.00
54270;BME280;40181;51.560;13.000;2023-02-12T09:22:00;102883.78;;;5.61;100.00
54270;BME280;40181;51.560;13.000;2023-02-12T09:24:29;102869.63;;;5.83;100.00
54270;BME280;40181;51.560;13.000;2023-02-12T09:26:58;102870.94;;;5.64;100.00
54270;BME280;40181;51.560;13.000;2023-02-12T09:29:30;102874.00;;;5.71;100.00
54270;BME280;40181;51.560;13.000;2023-02-12T09:31:59;102881.69;;;5.69;100.00
54270;BME280;40181;51.560;13.000;2023-02-12T09:34:33;102870.56;;;5.72;100.00
54270;BME280;40181;51.560;13.000;2023-02-12T09:37:02;102871.50;;;5.72;100.00
54270;BME280;40181;51.560;13.000;2023-02-12T09:39:31;102873.34;;;5.87;100.00
54270;BME280;40181;51.560;13.000;2023-02-12T09:42:19;102875.72;;;5.95;100.00
54270;BME280;40181;51.560;13.000;2023-02-12T09:45:09;102873.66;;;6.03;100.00
54270;BME280;40181;51.560;13.000;2023-02-12T09:47:48;102878.22;;;6.19;100.00
54270;BME280;40181;51.560;13.000;2023-02-12T09:50:30;102884.25;;;6.18;100.00
54270;BME280;40181;51.560;13.000;2023-02-12T09:53:04;102892.88;;;6.17;100.00
54270;BME280;40181;51.560;13.000;2023-02-12T09:55:35;102883.78;;;6.24;100.00
54270;BME280;40181;51.560;13.000;2023-02-12T09:58:12;102889.72;;;6.21;100.00
54270;BME280;40181;51.560;13.000;2023-02-12T10:00:43;102884.56;;;6.23;100.00
54270;BME280;40181;51.560;13.000;2023-02-12T10:06:47;102885.31;;;6.34;100.00
54270;BME280;40181;51.560;13.000;2023-02-12T10:09:36;102898.06;;;6.29;100.00
54270;BME280;40181;51.560;13.000;2023-02-12T10:12:22;102889.91;;;6.25;100.00
54270;BME280;40181;51.560;13.000;2023-02-12T10:15:14;102882.41;;;6.29;100.00
54270;BME280;40181;51.560;13.000;2023-02-12T10:17:54;102888.19;;;6.50;100.00
54270;BME280;40181;51.560;13.000;2023-02-12T10:20:44;102879.34;;;6.62;100.00
54270;BME280;40181;51.560;13.000;2023-02-12T10:23:39;102877.25;;;6.70;100.00
54270;BME280;40181;51.560;13.000;2023-02-12T10:26:30;102884.69;;;6.77;100.00
54270;BME280;40181;51.560;13.000;2023-02-12T10:29:10;102885.22;;;6.85;100.00
54270;BME280;40181;51.560;13.000;2023-02-12T10:31:46;102887.53;;;6.94;100.00
54270;BME280;40181;51.560;13.000;2023-02-12T10:34:20;102873.03;;;6.85;100.00
54270;BME280;40181;51.560;13.000;2023-02-12T10:36:54;102873.75;;;6.96;100.00
54270;BME280;40181;51.560;13.000;2023-02-12T10:39:28;102878.91;;;7.08;100.00
54270;BME280;40181;51.560;13.000;2023-02-12T10:42:08;102868.31;;;7.20;100.00
54270;BME280;40181;51.560;13.000;2023-02-12T10:44:39;102871.31;;;7.26;100.00
54270;BME280;40181;51.560;13.000;2023-02-12T10:47:14;102874.63;;;7.37;100.00
54270;BME280;40181;51.560;13.000;2023-02-12T10:49:50;102864.75;;;7.33;100.00
54270;BME280;40181;51.560;13.000;2023-02-12T10:52:32;102866.91;;;7.25;100.00
54270;BME280;40181;51.560;13.000;2023-02-12T10:55:22;102871.72;;;7.32;100.00
54270;BME280;40181;51.560;13.000;2023-02-12T10:57:53;102866.31;;;7.29;100.00
54270;BME280;40181;51.560;13.000;2023-02-12T11:00:25;102865.56;;;7.45;100.00
54270;BME280;40181;51.560;13.000;2023-02-12T11:03:05;102860.41;;;7.47;100.00
54270;BME280;40181;51.560;13.000;2023-02-12T11:05:49;102856.50;;;7.54;100.00
54270;BME280;40181;51.560;13.000;2023-02-12T11:08:28;102860.63;;;7.50;100.00
54270;BME280;40181;51.560;13.000;2023-02-12T11:11:04;102870.09;;;7.48;100.00
54270;BME280;40181;51.560;13.000;2023-02-12T11:13:36;102852.09;;;7.39;100.00
54270;BME280;40181;51.560;13.000;2023-02-12T11:16:07;102862.44;;;7.51;100.00
54270;BME280;40181;51.560;13.000;2023-02-12T11:18:40;102855.78;;;7.56;100.00
54270;BME280;40181;51.560;13.000;2023-02-12T11:21:10;102859.28;;;7.57;100.00
54270;BME280;40181;51.560;13.000;2023-02-12T11:23:41;102859.00;;;7.66;100.00
54270;BME280;40181;51.560;13.000;2023-02-12T11:26:24;102853.41;;;7.74;100.00
54270;BME280;40181;51.560;13.000;2023-02-12T11:28:57;102856.44;;;7.67;100.00
54270;BME280;40181;51.560;13.000;2023-02-12T11:31:28;102857.53;;;7.71;100.00
54270;BME280;40181;51.560;13.000;2023-02-12T11:34:14;102853.13;;;7.70;100.00
54270;BME280;40181;51.560;13.000;2023-02-12T11:36:46;102862.59;;;7.68;100.00
54270;BME280;40181;51.560;13.000;2023-02-12T11:39:19;102860.06;;;7.69;100.00
54270;BME280;40181;51.560;13.000;2023-02-12T11:41:52;102859.88;;;7.66;100.00
54270;BME280;40181;51.560;13.000;2023-02-12T11:44:24;102857.44;;;7.69;100.00
54270;BME280;40181;51.560;13.000;2023-02-12T11:46:58;102855.56;;;7.67;100.00
54270;BME280;40181;51.560;13.000;2023-02-12T11:49:38;102853.41;;;7.74;100.00
54270;BME280;40181;51.560;13.000;2023-02-12T11:52:18;102857.53;;;7.71;100.00
54270;BME280;40181;51.560;13.000;2023-02-12T11:54:50;102855.31;;;7.77;100.00
54270;BME280;40181;51.560;13.000;2023-02-12T11:57:37;102854.03;;;7.70;100.00
54270;BME280;40181;51.560;13.000;2023-02-12T12:00:15;102854.91;;;7.84;100.00
54270;BME280;40181;51.560;13.000;2023-02-12T12:02:49;102852.59;;;7.75;100.00
54270;BME280;40181;51.560;13.000;2023-02-12T12:05:28;102859.84;;;7.80;100.00
54270;BME280;40181;51.560;13.000;2023-02-12T12:08:05;102861.44;;;7.78;100.00
54270;BME280;40181;51.560;13.000;2023-02-12T12:10:43;102864.22;;;7.66;100.00
54270;BME280;40181;51.560;13.000;2023-02-12T12:13:19;102866.25;;;7.85;100.00
54270;BME280;40181;51.560;13.000;2023-02-12T12:15:56;102868.28;;;7.75;100.00
54270;BME280;40181;51.560;13.000;2023-02-12T12:18:54;102856.19;;;7.78;100.00
54270;BME280;40181;51.560;13.000;2023-02-12T12:21:44;102856.69;;;7.85;100.00
54270;BME280;40181;51.560;13.000;2023-02-12T12:24:20;102853.25;;;7.86;100.00
54270;BME280;40181;51.560;13.000;2023-02-12T12:26:57;102860.72;;;7.80;100.00
54270;BME280;40181;51.560;13.000;2023-02-12T12:29:45;102852.75;;;7.92;100.00
54270;BME280;40181;51.560;13.000;2023-02-12T12:32:20;102856.88;;;7.88;100.00
54270;BME280;40181;51.560;13.000;2023-02-12T12:34:51;102845.00;;;7.94;100.00
54270;BME280;40181;51.560;13.000;2023-02-12T12:37:31;102842.16;;;7.91;100.00
54270;BME280;40181;51.560;13.000;2023-02-12T12:40:20;102848.69;;;7.69;100.00
54270;BME280;40181;51.560;13.000;2023-02-12T12:43:17;102843.19;;;7.51;100.00
54270;BME280;40181;51.560;13.000;2023-02-12T12:46:17;102842.22;;;7.77;100.00
54270;BME280;40181;51.560;13.000;2023-02-12T12:49:06;102838.41;;;7.72;100.00
54270;BME280;40181;51.560;13.000;2023-02-12T12:52:18;102825.84;;;7.66;100.00
54270;BME280;40181;51.560;13.000;2023-02-12T12:55:27;102824.97;;;7.66;100.00
54270;BME280;40181;51.560;13.000;2023-02-12T12:58:28;102821.31;;;7.77;100.00
54270;BME280;40181;51.560;13.000;2023-02-12T13:01:13;102818.53;;;7.89;100.00
54270;BME280;40181;51.560;13.000;2023-02-12T13:07:02;102817.34;;;7.84;100.00
54270;BME280;40181;51.560;13.000;2023-02-12T13:10:00;102822.44;;;7.67;100.00
54270;BME280;40181;51.560;13.000;2023-02-12T13:12:43;102830.09;;;7.64;100.00
54270;BME280;40181;51.560;13.000;2023-02-12T13:15:27;102815.00;;;7.60;100.00
54270;BME280;40181;51.560;13.000;2023-02-12T13:18:08;102816.06;;;7.77;100.00
54270;BME280;40181;51.560;13.000;2023-02-12T13:20:49;102822.69;;;7.85;100.00
54270;BME280;40181;51.560;13.000;2023-02-12T13:23:26;102821.75;;;7.85;100.00
54270;BME280;40181;51.560;13.000;2023-02-12T13:26:09;102813.72;;;7.82;100.00